Time;durP1;ratioP1;P1;durP2;ratioP2;P2;SDS_P1;SDS_P2;PMS_P1;PMS_P2;Temp;Humidity;BMP_temperature;BMP_pressure;BME280_temperature;BME280_humidity;BME280_pressure;Samples;Min_cycle;Max_cycle;Signal;HPM_P1;HPM_P2
2021/04/06 00:00:27;;;;;;;11.10;5.37;;;;;;;1.22;76.84;98834.05;1630949;85;25743;-83
2021/04/06 00:03:00;;;;;;;10.18;5.03;;;;;;;1.22;76.77;98832.77;1676534;83;25713;-84
2021/04/06 00:05:27;;;;;;;14.43;5.83;;;;;;;1.23;76.66;98827.48;1654237;84;25762;-83
2021/04/06 00:07:55;;;;;;;10.35;5.15;;;;;;;1.24;76.78;98832.95;1657683;84;25414;-84
2021/04/06 00:10:32;;;;;;;11.35;5.67;;;;;;;1.23;76.81;98833.12;1652207;84;25865;-83
2021/04/06 00:12:59;;;;;;;14.80;5.85;;;;;;;1.21;76.62;98844.83;1636556;84;25583;-83
2021/04/06 00:15:27;;;;;;;11.03;5.10;;;;;;;1.21;76.69;98846.59;1635158;84;25399;-84
2021/04/06 00:17:59;;;;;;;9.85;5.28;;;;;;;1.18;76.99;98854.61;1657547;84;26334;-83
2021/04/06 00:20:28;;;;;;;14.05;5.42;;;;;;;1.17;76.92;98852.97;1666852;84;25325;-84
2021/04/06 00:22:56;;;;;;;11.83;5.55;;;;;;;1.17;76.82;98851.68;1660299;84;25915;-83
2021/04/06 00:25:30;;;;;;;12.20;5.15;;;;;;;1.16;77.01;98847.50;1666100;84;25857;-83
2021/04/06 00:27:56;;;;;;;9.78;5.53;;;;;;;0.97;77.04;98819.61;1664776;84;25749;-83
2021/04/06 00:30:29;;;;;;;10.63;4.95;;;;;;;1.14;77.09;98852.77;1666327;84;25802;-83
2021/04/06 00:33:07;;;;;;;10.03;4.47;;;;;;;1.14;76.91;98863.06;1691278;83;25742;-84
2021/04/06 00:35:36;;;;;;;9.05;4.50;;;;;;;1.14;77.08;98865.64;1692363;83;26407;-83
2021/04/06 00:38:14;;;;;;;8.80;4.45;;;;;;;1.13;76.85;98856.31;1659871;84;25864;-83
2021/04/06 00:40:47;;;;;;;10.03;5.15;;;;;;;1.13;76.82;98856.31;1689924;83;26072;-83
2021/04/06 00:43:13;;;;;;;11.00;5.17;;;;;;;1.11;76.97;98864.64;1689966;83;25342;-83
2021/04/06 00:45:43;;;;;;;11.93;5.17;;;;;;;0.98;77.14;98846.13;1689269;83;25367;-83
2021/04/06 00:48:19;;;;;;;8.58;4.97;;;;;;;0.98;77.14;98846.13;1689287;83;25771;-83
2021/04/06 00:51:11;;;;;;;10.53;4.70;;;;;;;1.06;77.03;98857.81;1654256;84;25379;-84
2021/04/06 00:54:04;;;;;;;9.75;5.15;;;;;;;1.04;76.94;98866.97;1612049;87;25873;-84
2021/04/06 00:56:37;;;;;;;10.03;4.80;;;;;;;1.03;76.86;98882.54;1633295;86;25900;-82
2021/04/06 00:59:07;;;;;;;8.73;4.75;;;;;;;1.01;76.84;98883.98;1632508;86;25823;-83
2021/04/06 01:01:44;;;;;;;9.25;5.40;;;;;;;1.00;77.00;98895.69;1634979;86;26557;-83
2021/04/06 01:04:16;;;;;;;11.80;5.00;;;;;;;0.98;77.05;98898.86;1634386;86;25362;-84
2021/04/06 01:07:09;;;;;;;7.60;4.10;;;;;;;0.97;76.94;98892.91;1634193;86;26291;-84
2021/04/06 01:09:55;;;;;;;10.13;4.78;;;;;;;0.98;76.88;98893.27;1633787;86;25408;-83
2021/04/06 01:12:27;;;;;;;11.22;4.80;;;;;;;0.95;77.01;98898.67;1632860;86;25899;-83
2021/04/06 01:14:55;;;;;;;9.60;4.33;;;;;;;0.93;76.94;98909.59;1637670;86;25660;-83
2021/04/06 01:17:28;;;;;;;12.18;4.95;;;;;;;0.92;76.87;98907.95;1631769;86;25912;-83
2021/04/06 01:20:15;;;;;;;8.15;3.83;;;;;;;0.93;76.73;98914.73;1632919;86;25841;-83
2021/04/06 01:22:46;;;;;;;12.93;4.87;;;;;;;0.90;76.88;98917.59;1608733;87;25869;-82
2021/04/06 01:25:24;;;;;;;7.75;4.15;;;;;;;0.88;76.94;98917.72;1617351;87;25357;-83
2021/04/06 01:27:56;;;;;;;10.98;5.03;;;;;;;0.86;76.85;98921.38;1632766;86;25818;-83
2021/04/06 01:30:23;;;;;;;8.98;4.05;;;;;;;0.84;76.86;98921.98;1661636;83;25683;-82
2021/04/06 01:32:51;;;;;;;9.10;3.72;;;;;;;0.80;76.96;98924.51;1661583;84;25912;-83
2021/04/06 01:35:18;;;;;;;8.73;4.65;;;;;;;0.78;77.03;98925.92;1671410;84;25910;-83
2021/04/06 01:37:44;;;;;;;9.50;4.67;;;;;;;0.77;76.80;98926.08;1671787;84;25945;-83
2021/04/06 01:40:12;;;;;;;10.00;3.83;;;;;;;0.79;76.79;98940.87;1672338;84;26436;-83
2021/04/06 01:42:39;;;;;;;7.45;3.67;;;;;;;0.80;76.83;98940.74;1673368;84;25545;-84
2021/04/06 01:45:09;;;;;;;11.33;4.85;;;;;;;0.80;76.68;98938.17;1674607;84;26586;-83
2021/04/06 01:47:35;;;;;;;12.25;4.65;;;;;;;0.78;76.85;98947.78;1673022;84;25815;-83
2021/04/06 01:50:04;;;;;;;8.30;4.40;;;;;;;0.79;76.85;98954.56;1674027;84;26567;-83
2021/04/06 01:52:31;;;;;;;10.15;4.95;;;;;;;0.80;76.85;98950.22;1673458;84;26451;-83
2021/04/06 01:55:07;;;;;;;10.82;4.70;;;;;;;0.80;76.80;98945.08;1673259;84;25795;-84
2021/04/06 01:57:34;;;;;;;11.35;4.83;;;;;;;0.79;76.85;98956.30;1671298;84;25870;-84
2021/04/06 02:00:06;;;;;;;9.68;4.50;;;;;;;0.80;76.80;98959.23;1674204;84;25750;-82
2021/04/06 02:02:29;;;;;;;8.73;4.15;;;;;;;0.81;76.63;98959.55;1674581;83;25790;-83
2021/04/06 02:04:58;;;;;;;8.63;3.80;;;;;;;0.84;76.56;98963.94;1673077;84;25677;-82
2021/04/06 02:07:29;;;;;;;9.95;5.33;;;;;;;0.84;76.51;98956.22;1674065;84;25786;-83
2021/04/06 02:09:55;;;;;;;10.65;4.55;;;;;;;0.85;76.67;98959.63;1673658;84;26274;-82
2021/04/06 02:12:25;;;;;;;8.85;4.67;;;;;;;0.84;76.31;98969.08;1673093;84;25365;-84
2021/04/06 02:15:00;;;;;;;9.20;5.13;;;;;;;0.84;76.31;98971.66;1671890;84;25769;-83
2021/04/06 02:17:26;;;;;;;11.18;4.00;;;;;;;0.83;76.26;98968.75;1672271;83;25819;-84
2021/04/06 02:19:52;;;;;;;9.00;4.67;;;;;;;0.83;76.12;98976.95;1644779;84;31356;-84
2021/04/06 02:22:20;;;;;;;9.20;3.50;;;;;;;0.83;76.04;98979.52;1671525;84;35388;-84
2021/04/06 02:24:52;;;;;;;7.85;3.67;;;;;;;0.83;75.93;98980.80;1673162;84;25807;-84
2021/04/06 02:27:25;;;;;;;9.68;4.03;;;;;;;0.84;76.00;98979.84;1671328;84;26371;-84
2021/04/06 02:29:58;;;;;;;8.65;4.10;;;;;;;0.85;75.87;98989.20;1672992;84;25908;-84
2021/04/06 02:32:31;;;;;;;7.85;4.12;;;;;;;0.87;75.69;98987.28;1673115;84;25379;-84
2021/04/06 02:35:01;;;;;;;10.25;4.55;;;;;;;0.88;75.67;98985.88;1672996;84;26807;-85
2021/04/06 02:37:36;;;;;;;11.90;5.10;;;;;;;0.91;75.59;98992.51;1674394;84;25861;-83
2021/04/06 02:40:09;;;;;;;10.23;3.95;;;;;;;0.91;75.48;98986.55;1672618;84;25991;-78
2021/04/06 02:42:44;;;;;;;10.53;4.62;;;;;;;0.89;75.48;98990.54;1672020;84;25755;-78
2021/04/06 02:45:20;;;;;;;9.88;4.03;;;;;;;0.87;75.40;98991.98;1673297;84;25342;-78
2021/04/06 02:47:50;;;;;;;7.62;4.00;;;;;;;0.79;75.44;98978.16;1673767;84;25877;-78
2021/04/06 02:50:23;;;;;;;8.10;4.00;;;;;;;0.87;75.35;98997.13;1672353;84;26000;-78
2021/04/06 02:52:49;;;;;;;7.90;3.45;;;;;;;0.87;75.39;98995.00;1673558;84;25882;-79
2021/04/06 02:55:16;;;;;;;8.23;4.05;;;;;;;0.88;75.45;98996.64;1673676;84;25848;-78
2021/04/06 02:57:49;;;;;;;7.22;3.60;;;;;;;0.87;75.34;98995.84;1672376;84;25888;-78
2021/04/06 03:00:30;;;;;;;8.38;3.70;;;;;;;0.87;75.13;98997.13;1672987;84;25779;-78
2021/04/06 03:02:58;;;;;;;12.93;3.77;;;;;;;0.87;75.25;99003.55;1673959;84;25738;-83
2021/04/06 03:05:33;;;;;;;6.65;4.15;;;;;;;0.89;75.38;98996.48;1674217;84;25331;-83
2021/04/06 03:08:00;;;;;;;16.27;5.10;;;;;;;0.88;75.32;98991.50;1671489;84;26015;-82
2021/04/06 03:10:28;;;;;;;7.78;3.85;;;;;;;0.89;75.39;98999.55;1672657;84;25428;-84
2021/04/06 03:12:54;;;;;;;12.18;4.37;;;;;;;0.88;75.39;98998.73;1673223;84;25760;-83
2021/04/06 03:15:27;;;;;;;9.13;3.98;;;;;;;0.87;75.23;99004.00;1674882;84;25862;-77
2021/04/06 03:17:56;;;;;;;9.78;4.17;;;;;;;0.87;75.34;98998.86;1674848;84;25768;-84
2021/04/06 03:20:25;;;;;;;10.63;4.85;;;;;;;0.87;75.43;98995.00;1673123;84;25742;-84
2021/04/06 03:22:54;;;;;;;7.15;4.20;;;;;;;0.87;75.74;98996.28;1673171;84;25699;-84
2021/04/06 03:25:22;;;;;;;9.75;4.22;;;;;;;0.86;75.60;98995.48;1676328;84;25724;-85
2021/04/06 03:27:50;;;;;;;7.80;4.60;;;;;;;0.85;76.12;98991.30;1672811;84;25748;-84
2021/04/06 03:30:32;;;;;;;11.08;4.62;;;;;;;0.84;76.20;98998.66;1671447;84;26639;-85
2021/04/06 03:33:08;;;;;;;10.80;5.08;;;;;;;0.83;77.03;99007.81;1672861;84;26607;-82
2021/04/06 03:35:36;;;;;;;9.98;4.42;;;;;;;0.77;77.01;99004.02;1674231;84;25710;-83
2021/04/06 03:38:09;;;;;;;6.85;4.50;;;;;;;0.75;77.95;99012.34;1673853;84;25420;-83
2021/04/06 03:40:38;;;;;;;8.15;4.78;;;;;;;0.73;77.27;99001.85;1671954;84;25929;-83
2021/04/06 03:43:16;;;;;;;11.20;5.35;;;;;;;0.71;78.01;98997.31;1673091;84;25361;-82
2021/04/06 03:46:04;;;;;;;11.30;5.40;;;;;;;0.70;78.19;98996.98;1673323;84;25882;-83
2021/04/06 03:48:35;;;;;;;6.78;4.28;;;;;;;0.67;77.95;98994.20;1675068;84;25311;-82
2021/04/06 03:51:04;;;;;;;9.20;5.42;;;;;;;0.63;77.94;98995.44;1673891;84;25492;-82
2021/04/06 03:53:41;;;;;;;10.82;5.25;;;;;;;0.65;78.18;98993.52;1672796;84;25854;-83
2021/04/06 03:56:12;;;;;;;12.45;6.10;;;;;;;0.63;77.94;99002.67;1673488;84;25791;-83
2021/04/06 03:58:40;;;;;;;11.05;5.62;;;;;;;0.65;78.04;98996.93;1673441;84;26592;-84
2021/04/06 04:01:14;;;;;;;11.33;6.72;;;;;;;0.68;78.11;99000.96;1673367;84;25867;-83
2021/04/06 04:03:41;;;;;;;18.77;10.38;;;;;;;0.73;78.11;99009.56;1671825;84;25921;-82
2021/04/06 04:06:08;;;;;;;21.80;7.08;;;;;;;0.74;77.64;99003.49;1672931;84;25408;-83
2021/04/06 04:08:35;;;;;;;10.50;5.22;;;;;;;0.78;77.69;99004.83;1672391;84;25768;-81
2021/04/06 04:11:01;;;;;;;15.18;6.62;;;;;;;0.81;77.58;99008.41;1666168;84;26774;-79
2021/04/06 04:13:27;;;;;;;9.03;5.08;;;;;;;0.81;77.43;99001.50;1674621;84;25961;-79
2021/04/06 04:15:53;;;;;;;11.17;4.23;;;;;;;0.82;77.29;99005.72;1674427;84;34845;-84
2021/04/06 04:18:19;;;;;;;9.73;4.20;;;;;;;0.81;77.28;99000.70;1673345;84;25399;-84
2021/04/06 04:20:45;;;;;;;9.43;4.10;;;;;;;0.81;77.03;99004.55;1672153;84;26027;-86
2021/04/06 04:23:10;;;;;;;7.40;4.23;;;;;;;0.79;77.08;99000.02;1674779;84;33203;-86
2021/04/06 04:25:36;;;;;;;11.40;4.50;;;;;;;0.79;76.95;99004.70;1674919;84;31875;-85
2021/04/06 04:28:03;;;;;;;6.78;3.05;;;;;;;0.79;76.99;99005.99;1672518;84;25420;-86
2021/04/06 04:30:36;;;;;;;9.08;3.83;;;;;;;0.78;77.04;99009.97;1674087;84;25365;-86
2021/04/06 04:33:04;;;;;;;6.62;3.15;;;;;;;0.76;76.80;99008.81;1674267;84;25711;-85
2021/04/06 04:35:29;;;;;;;7.90;4.72;;;;;;;0.75;76.85;99014.10;1672756;84;25911;-87
2021/04/06 04:37:55;;;;;;;9.17;3.30;;;;;;;0.75;77.07;99019.25;1672360;84;31650;-86
2021/04/06 04:40:21;;;;;;;7.23;3.67;;;;;;;0.75;77.15;99021.82;1674001;84;34905;-85
2021/04/06 04:42:53;;;;;;;10.23;3.40;;;;;;;0.79;77.08;99018.85;1672176;84;26038;-86
2021/04/06 04:45:20;;;;;;;8.38;3.47;;;;;;;0.83;77.04;99015.52;1672881;84;25864;-86
2021/04/06 04:47:47;;;;;;;7.53;3.45;;;;;;;0.89;77.18;99009.83;1672020;84;26378;-88
2021/04/06 04:50:15;;;;;;;5.85;2.87;;;;;;;0.94;76.90;99016.66;1675723;84;25324;-88
2021/04/06 04:52:45;;;;;;;8.18;3.58;;;;;;;0.92;76.75;99016.46;1673815;84;25390;-86
2021/04/06 04:55:14;;;;;;;;;;;;;;;0.92;76.79;99022.89;1648305;84;25729;-87
2021/04/06 04:57:40;;;;;;;10.78;4.20;;;;;;;0.93;76.97;99017.63;1674719;84;25334;-87
2021/04/06 05:00:08;;;;;;;8.03;4.12;;;;;;;0.94;76.88;99019.23;1674878;84;25868;-86
2021/04/06 05:02:34;;;;;;;9.53;3.62;;;;;;;0.95;76.94;99016.19;1675536;84;25790;-86
2021/04/06 05:05:00;;;;;;;13.03;4.73;;;;;;;0.94;76.93;99023.09;1674695;84;34832;-86
2021/04/06 05:07:26;;;;;;;7.80;3.60;;;;;;;0.95;76.77;99014.42;1674257;84;25385;-86
2021/04/06 05:09:52;;;;;;;11.53;4.33;;;;;;;0.97;76.90;99020.73;1672919;84;25372;-85
2021/04/06 05:12:18;;;;;;;9.47;4.80;;;;;;;0.98;76.80;99012.05;1673937;84;33213;-87
2021/04/06 05:14:46;;;;;;;11.65;5.92;;;;;;;0.99;76.89;99017.07;1674062;84;25437;-87
2021/04/06 05:17:13;;;;;;;7.30;4.75;;;;;;;1.02;77.07;99017.27;1671350;84;25633;-86
2021/04/06 05:19:39;;;;;;;10.85;6.00;;;;;;;1.03;76.92;99024.03;1673294;82;25891;-86
2021/04/06 05:22:05;;;;;;;9.90;5.37;;;;;;;1.05;76.82;99033.23;1673887;84;25447;-85
2021/04/06 05:24:31;;;;;;;9.90;4.80;;;;;;;1.07;76.84;99041.64;1673587;84;33148;-87
2021/04/06 05:26:57;;;;;;;9.83;5.77;;;;;;;1.07;77.04;99038.26;1671972;84;31451;-86
2021/04/06 05:29:23;;;;;;;14.13;6.25;;;;;;;1.09;76.87;99048.75;1675519;84;25406;-88
2021/04/06 05:31:50;;;;;;;11.12;5.95;;;;;;;1.11;76.91;99055.84;1676404;84;43770;-87
2021/04/06 05:34:16;;;;;;;8.90;4.87;;;;;;;1.13;76.87;99063.91;1673795;84;25365;-87
2021/04/06 05:36:42;;;;;;;7.92;4.55;;;;;;;1.13;76.81;99067.77;1679241;84;25660;-87
2021/04/06 05:39:08;;;;;;;9.65;5.53;;;;;;;1.18;76.89;99073.33;1674138;84;25319;-84
2021/04/06 05:41:35;;;;;;;8.00;4.10;;;;;;;1.22;76.86;99072.89;1674450;84;34928;-85
2021/04/06 05:44:04;;;;;;;14.83;4.97;;;;;;;1.24;77.01;99073.58;1676134;84;25695;-86
2021/04/06 05:46:34;;;;;;;10.90;4.40;;;;;;;1.25;77.11;99077.77;1675090;84;25714;-86
2021/04/06 05:49:10;;;;;;;10.93;5.20;;;;;;;1.25;76.81;99080.81;1672041;84;25893;-79
2021/04/06 05:51:38;;;;;;;13.15;8.23;;;;;;;1.25;76.95;99081.63;1671136;84;25790;-79
2021/04/06 05:54:07;;;;;;;13.85;5.37;;;;;;;1.27;77.02;99088.73;1672920;84;25874;-79
2021/04/06 05:56:33;;;;;;;12.53;6.55;;;;;;;1.28;77.04;99081.83;1671084;84;25886;-79
2021/04/06 05:59:00;;;;;;;10.13;7.03;;;;;;;1.31;76.93;99078.52;1671808;84;25385;-79
2021/04/06 06:01:30;;;;;;;12.10;5.53;;;;;;;1.32;77.04;99089.15;1671249;84;25949;-81
2021/04/06 06:03:57;;;;;;;10.90;7.28;;;;;;;1.31;77.10;99101.69;1666933;84;25387;-79
2021/04/06 06:06:24;;;;;;;11.28;7.50;;;;;;;1.34;77.01;99090.31;1676766;84;25667;-83
2021/04/06 06:08:57;;;;;;;12.63;6.47;;;;;;;1.32;77.12;99093.00;1671600;84;25410;-83
2021/04/06 06:11:19;;;;;;;9.90;5.12;;;;;;;1.39;77.06;99113.88;1674385;84;25998;-78
2021/04/06 06:13:46;;;;;;;11.13;6.27;;;;;;;1.23;76.97;99098.98;1673241;84;33229;-78
2021/04/06 06:16:21;;;;;;;13.93;8.40;;;;;;;1.44;77.09;99132.27;1675160;84;25910;-78
2021/04/06 06:19:04;;;;;;;10.65;6.17;;;;;;;1.48;76.76;99132.83;1672822;84;25762;-79
2021/04/06 06:21:54;;;;;;;11.57;5.30;;;;;;;1.49;76.67;99135.26;1669223;84;26039;-76
2021/04/06 06:24:35;;;;;;;10.82;5.42;;;;;;;1.48;76.61;99143.94;1655675;84;25716;-80
2021/04/06 06:27:01;;;;;;;14.13;7.00;;;;;;;1.44;76.60;99146.91;1689303;83;25806;-75
2021/04/06 06:29:30;;;;;;;12.50;6.13;;;;;;;1.40;76.53;99146.38;1691283;83;31943;-74
2021/04/06 06:31:59;;;;;;;12.20;5.45;;;;;;;1.43;76.69;99138.86;1659073;84;25535;-78
2021/04/06 06:34:34;;;;;;;15.55;5.70;;;;;;;1.43;76.67;99135.00;1657537;84;25918;-78
2021/04/06 06:37:05;;;;;;;11.00;6.22;;;;;;;1.40;76.65;99125.79;1668134;84;25982;-80
2021/04/06 06:39:32;;;;;;;15.05;5.53;;;;;;;1.38;76.54;99134.12;1692247;83;25665;-76
2021/04/06 06:42:01;;;;;;;12.68;5.75;;;;;;;1.41;76.76;99136.41;1661099;84;25348;-78
2021/04/06 06:44:30;;;;;;;12.35;5.25;;;;;;;1.42;76.61;99144.49;1673380;84;25404;-81
2021/04/06 06:47:15;;;;;;;12.87;4.40;;;;;;;1.44;76.56;99140.48;1674447;84;26042;-84
2021/04/06 06:49:42;;;;;;;16.52;5.50;;;;;;;1.44;76.68;99155.45;1674836;84;25446;-84
2021/04/06 06:52:27;;;;;;;14.98;6.95;;;;;;;1.43;76.58;99151.73;1676046;84;25663;-81
2021/04/06 06:55:00;;;;;;;15.03;6.20;;;;;;;1.49;76.52;99156.33;1677015;84;25327;-81
2021/04/06 06:57:33;;;;;;;14.10;6.03;;;;;;;1.52;76.65;99159.44;1675857;84;25777;-78
2021/04/06 07:00:10;;;;;;;9.40;5.45;;;;;;;1.57;76.59;99155.17;1671709;84;25931;-79
2021/04/06 07:02:37;;;;;;;9.68;4.45;;;;;;;1.58;76.49;99146.97;1676027;84;25766;-77
2021/04/06 07:05:32;;;;;;;12.40;4.55;;;;;;;1.52;76.13;99143.98;1676403;84;26420;-81
2021/04/06 07:08:06;;;;;;;12.00;4.22;;;;;;;1.50;76.18;99148.94;1698439;82;25779;-79
2021/04/06 07:10:39;;;;;;;11.33;5.40;;;;;;;1.57;76.33;99159.52;1699104;82;25772;-80
2021/04/06 07:13:12;;;;;;;15.88;5.87;;;;;;;1.60;76.10;99153.61;1697917;82;25366;-83
2021/04/06 07:15:41;;;;;;;15.15;5.15;;;;;;;1.56;75.80;99162.57;1697350;82;25840;-83
2021/04/06 07:18:14;;;;;;;13.30;4.90;;;;;;;1.56;75.84;99161.28;1700788;82;25894;-76
2021/04/06 07:20:48;;;;;;;17.50;6.00;;;;;;;1.54;75.62;99161.89;1697742;82;25863;-82
2021/04/06 07:23:20;;;;;;;12.37;5.22;;;;;;;1.53;75.69;99176.53;1697590;82;26122;-80
2021/04/06 07:25:45;;;;;;;15.45;6.78;;;;;;;1.54;75.54;99163.17;1696186;82;25803;-81
2021/04/06 07:28:17;;;;;;;19.07;7.83;;;;;;;1.57;75.70;99184.78;1699058;82;25854;-80
2021/04/06 07:30:45;;;;;;;19.57;7.05;;;;;;;1.60;75.61;99197.38;1697848;82;25803;-90
2021/04/06 07:33:15;;;;;;;26.85;8.70;;;;;;;1.65;75.46;99194.41;1696006;82;25751;-80
2021/04/06 07:35:43;;;;;;;13.80;7.83;;;;;;;1.68;75.46;99193.66;1698741;82;25744;-83
2021/04/06 07:38:09;;;;;;;17.77;7.67;;;;;;;1.75;75.24;99187.02;1696935;82;25337;-83
2021/04/06 07:40:35;;;;;;;13.83;8.05;;;;;;;1.80;74.91;99182.75;1670803;82;25372;-84
2021/04/06 07:43:09;;;;;;;10.20;6.15;;;;;;;1.82;74.81;99189.03;1697892;82;25976;-81
2021/04/06 07:45:39;;;;;;;17.77;5.80;;;;;;;1.86;74.72;99173.17;1669279;82;25719;-78
2021/04/06 07:48:06;;;;;;;22.37;6.28;;;;;;;1.92;74.56;99179.05;1698365;82;31493;-84
2021/04/06 07:50:43;;;;;;;15.68;5.75;;;;;;;1.94;74.62;99184.88;1697817;82;26682;-80
2021/04/06 07:53:22;;;;;;;14.07;4.85;;;;;;;1.97;73.84;99182.03;1699505;82;25902;-82
2021/04/06 07:55:50;;;;;;;17.05;6.10;;;;;;;1.90;73.49;99186.09;1699111;82;25855;-79
2021/04/06 07:58:52;;;;;;;17.48;6.55;;;;;;;1.93;73.83;99180.66;1699084;82;25498;-76
2021/04/06 08:01:29;;;;;;;16.25;6.12;;;;;;;1.94;73.59;99179.73;1699696;82;25380;-80
2021/04/06 08:04:08;;;;;;;16.67;6.00;;;;;;;1.97;73.10;99179.93;1669052;82;25779;-82
2021/04/06 08:06:54;;;;;;;23.70;8.73;;;;;;;1.89;73.02;99170.80;1718640;81;25838;-80
2021/04/06 08:09:43;;;;;;;15.03;6.10;;;;;;;2.02;73.22;99180.78;1717540;81;25729;-79
2021/04/06 08:12:27;;;;;;;13.18;5.08;;;;;;;2.05;72.75;99180.53;1718067;81;25566;-79
2021/04/06 08:15:01;;;;;;;12.73;6.00;;;;;;;2.03;72.35;99179.37;1718092;81;26387;-78
2021/04/06 08:17:33;;;;;;;11.90;5.60;;;;;;;2.04;72.45;99171.16;1690554;83;26011;-80
2021/04/06 08:20:25;;;;;;;20.77;8.10;;;;;;;2.09;71.73;99171.07;1694042;82;25435;-80
2021/04/06 08:23:01;;;;;;;16.90;6.22;;;;;;;1.96;71.17;99152.06;1690225;83;26401;-79
2021/04/06 08:25:36;;;;;;;13.05;6.70;;;;;;;2.21;71.49;99178.17;1671832;83;25787;-79
2021/04/06 08:28:27;;;;;;;16.02;6.95;;;;;;;2.27;71.03;99171.16;1690357;83;26320;-81
2021/04/06 08:30:53;;;;;;;17.73;7.53;;;;;;;2.33;71.47;99169.78;1689950;83;25823;-79
2021/04/06 08:33:25;;;;;;;14.58;5.85;;;;;;;2.38;70.84;99184.35;1689410;83;25650;-77
2021/04/06 08:35:57;;;;;;;17.10;7.65;;;;;;;2.43;70.90;99192.00;1690326;83;25812;-75
2021/04/06 08:38:28;;;;;;;12.58;6.50;;;;;;;2.42;70.00;99202.44;1688015;83;25788;-78
2021/04/06 08:41:14;;;;;;;15.08;6.70;;;;;;;2.48;70.44;99209.60;1689374;83;25736;-80
2021/04/06 08:44:04;;;;;;;15.48;5.62;;;;;;;2.54;69.30;99215.50;1660807;83;25839;-80
2021/04/06 08:46:48;;;;;;;12.20;5.65;;;;;;;2.54;69.30;99215.50;1689031;83;25358;-80
2021/04/06 08:49:23;;;;;;;19.67;7.33;;;;;;;2.51;69.86;99217.53;1689548;83;25836;-80
2021/04/06 08:51:59;;;;;;;11.57;5.03;;;;;;;2.50;70.16;99219.79;1690421;83;25799;-80
2021/04/06 08:54:31;;;;;;;16.00;5.55;;;;;;;2.51;69.71;99202.90;1689834;83;26300;-77
2021/04/06 08:57:02;;;;;;;16.55;6.40;;;;;;;2.51;69.71;99202.90;1668018;83;25861;-80
2021/04/06 08:59:39;;;;;;;20.77;6.83;;;;;;;2.50;69.55;99205.12;1690496;83;25866;-78
2021/04/06 09:02:12;;;;;;;12.58;5.92;;;;;;;2.50;69.55;99205.12;1689316;83;25660;-78
2021/04/06 09:04:48;;;;;;;17.32;6.92;;;;;;;2.49;69.66;99208.67;1691210;83;25712;-83
2021/04/06 09:07:24;;;;;;;14.73;5.45;;;;;;;2.52;69.32;99208.38;1687363;83;25374;-82
2021/04/06 09:10:01;;;;;;;14.50;6.28;;;;;;;2.55;68.91;99204.70;1686493;83;25901;-79
2021/04/06 09:12:27;;;;;;;13.70;7.55;;;;;;;2.58;69.21;99207.00;1691272;83;25756;-77
2021/04/06 09:14:55;;;;;;;17.45;6.55;;;;;;;2.58;69.21;99207.00;1688180;83;25832;-78
2021/04/06 09:17:48;;;;;;;14.55;6.35;;;;;;;2.58;69.04;99213.45;1690639;83;26453;-76
2021/04/06 09:20:16;;;;;;;11.45;6.58;;;;;;;2.58;68.84;99205.22;1744658;80;25683;-77
2021/04/06 09:22:47;;;;;;;13.70;6.50;;;;;;;2.46;68.76;99184.94;1748800;80;25575;-78
2021/04/06 09:25:21;;;;;;;18.25;8.18;;;;;;;2.46;68.76;99184.94;1746244;80;25693;-77
2021/04/06 09:28:01;;;;;;;15.08;7.25;;;;;;;2.72;69.58;99203.13;1777126;79;26620;-78
2021/04/06 09:30:46;;;;;;;12.33;6.08;;;;;;;2.72;69.58;99203.13;1733528;79;26562;-77
2021/04/06 09:33:17;;;;;;;14.93;5.70;;;;;;;2.86;68.89;99207.35;1716897;81;26501;-77
2021/04/06 09:35:50;;;;;;;18.35;5.75;;;;;;;2.84;67.82;99209.26;1776022;79;25330;-78
2021/04/06 09:38:22;;;;;;;17.77;5.90;;;;;;;2.85;68.16;99211.35;1762579;79;26432;-77
2021/04/06 09:40:49;;;;;;;13.40;5.70;;;;;;;2.86;67.77;99205.22;1732294;80;25688;-79
2021/04/06 09:43:16;;;;;;;14.00;5.92;;;;;;;2.86;68.29;99208.64;1731286;80;25804;-80
2021/04/06 09:45:43;;;;;;;8.73;4.70;;;;;;;2.91;68.11;99204.32;1732042;80;25727;-85
2021/04/06 09:48:14;;;;;;;12.55;4.55;;;;;;;2.85;66.74;99196.67;1731702;80;26729;-84
2021/04/06 09:51:03;;;;;;;13.00;5.30;;;;;;;2.91;66.05;99215.94;1733841;80;25687;-84
2021/04/06 09:53:36;;;;;;;12.50;4.95;;;;;;;2.88;66.63;99221.38;1732474;81;26584;-83
2021/04/06 09:56:03;;;;;;;12.37;5.08;;;;;;;2.95;66.82;99212.61;1732347;80;25823;-78
2021/04/06 09:58:34;;;;;;;13.05;4.92;;;;;;;2.75;65.69;99208.81;1714068;82;25682;-80
2021/04/06 10:01:02;;;;;;;15.55;7.92;;;;;;;2.75;65.69;99208.81;1731995;80;25676;-79
2021/04/06 10:03:28;;;;;;;13.65;4.70;;;;;;;2.81;66.07;99219.03;1728787;80;25810;-78
2021/04/06 10:06:07;;;;;;;11.83;4.42;;;;;;;2.80;66.11;99215.64;1732401;80;25804;-78
2021/04/06 10:08:34;;;;;;;20.15;5.35;;;;;;;2.81;65.34;99214.71;1713172;81;25432;-83
2021/04/06 10:11:00;;;;;;;13.53;5.35;;;;;;;2.80;65.96;99213.55;1682512;80;25359;-80
2021/04/06 10:13:27;;;;;;;9.40;4.55;;;;;;;2.86;66.23;99207.80;1731667;80;25822;-84
2021/04/06 10:16:11;;;;;;;13.38;5.42;;;;;;;2.96;66.49;99209.06;1731375;81;25833;-80
2021/04/06 10:18:41;;;;;;;12.95;4.83;;;;;;;3.03;65.91;99199.79;1731248;80;25730;-78
2021/04/06 10:21:27;;;;;;;10.23;5.20;;;;;;;2.99;65.57;99201.83;1713677;81;25896;-76
2021/04/06 10:24:03;;;;;;;12.33;5.12;;;;;;;3.07;64.92;99204.98;1731942;80;25777;-81
2021/04/06 10:26:30;;;;;;;13.75;5.17;;;;;;;3.02;65.07;99201.53;1731676;80;25770;-81
2021/04/06 10:29:09;;;;;;;10.18;5.15;;;;;;;3.04;64.89;99202.69;1714290;80;25389;-76
2021/04/06 10:31:51;;;;;;;11.73;5.10;;;;;;;2.98;65.35;99209.25;1729285;80;25798;-78
2021/04/06 10:34:18;;;;;;;14.18;4.42;;;;;;;2.98;64.85;99197.63;1730941;80;25868;-79
2021/04/06 10:37:02;;;;;;;16.52;5.58;;;;;;;2.89;63.72;99203.64;1730603;80;26408;-79
2021/04/06 10:39:41;;;;;;;10.23;4.97;;;;;;;2.80;64.35;99201.94;1729042;80;25817;-78
2021/04/06 10:42:12;;;;;;;12.80;4.40;;;;;;;2.72;63.74;99200.07;1729763;80;25304;-75
2021/04/06 10:44:41;;;;;;;11.83;4.80;;;;;;;2.65;63.85;99192.59;1731110;81;25886;-76
2021/04/06 10:47:07;;;;;;;13.03;4.42;;;;;;;2.67;64.60;99199.69;1732873;80;25353;-74
2021/04/06 10:49:33;;;;;;;13.58;5.67;;;;;;;2.82;64.75;99210.36;1712321;80;27086;-76
2021/04/06 10:52:07;;;;;;;16.10;5.60;;;;;;;2.99;65.02;99195.86;1755415;79;25896;-77
2021/04/06 10:54:33;;;;;;;13.60;5.62;;;;;;;3.15;64.85;99185.70;1740336;79;25403;-78
2021/04/06 10:56:59;;;;;;;13.70;5.25;;;;;;;3.27;64.20;99200.49;1777389;79;26416;-78
2021/04/06 10:59:36;;;;;;;13.55;6.55;;;;;;;3.36;63.56;99203.50;1762819;79;25753;-79
2021/04/06 11:02:05;;;;;;;16.60;5.87;;;;;;;3.37;63.41;99192.69;1745655;80;26206;-78
2021/04/06 11:04:39;;;;;;;15.20;4.30;;;;;;;3.17;63.02;99183.80;1746870;80;25965;-78
2021/04/06 11:07:09;;;;;;;11.45;4.35;;;;;;;3.20;61.52;99217.55;1745497;80;25768;-77
2021/04/06 11:09:47;;;;;;;10.05;3.98;;;;;;;3.09;60.86;99212.11;1746743;80;25837;-78
2021/04/06 11:12:19;;;;;;;13.68;4.97;;;;;;;3.11;60.68;99212.78;1743991;80;25687;-78
2021/04/06 11:14:47;;;;;;;9.65;4.35;;;;;;;3.12;60.43;99215.69;1688460;82;26147;-79
2021/04/06 11:17:16;;;;;;;11.25;3.87;;;;;;;3.16;59.24;99207.16;1761370;79;25522;-77
2021/04/06 11:19:45;;;;;;;11.68;4.17;;;;;;;3.23;58.43;99203.05;1755668;79;25289;-76
2021/04/06 11:22:18;;;;;;;13.58;4.25;;;;;;;3.40;59.95;99206.11;1731501;80;25759;-75
2021/04/06 11:24:48;;;;;;;9.03;4.10;;;;;;;3.66;60.33;99211.35;1746580;80;25955;-76
2021/04/06 11:27:18;;;;;;;9.60;3.98;;;;;;;3.78;58.71;99199.00;1747674;80;25802;-75
2021/04/06 11:29:43;;;;;;;6.97;3.45;;;;;;;3.84;57.44;99206.63;1748383;80;25814;-77
2021/04/06 11:32:19;;;;;;;10.48;3.17;;;;;;;3.77;55.81;99206.44;1749386;80;25920;-77
2021/04/06 11:34:44;;;;;;;11.75;3.92;;;;;;;3.68;54.97;99207.31;1729945;80;26978;-78
2021/04/06 11:37:12;;;;;;;8.70;3.80;;;;;;;3.62;56.21;99211.30;1731360;80;25783;-77
2021/04/06 11:39:45;;;;;;;9.38;3.67;;;;;;;3.63;55.90;99212.11;1729973;80;25352;-76
2021/04/06 11:42:12;;;;;;;;;;;;;;;3.68;55.78;99221.06;1749267;80;26653;-76
2021/04/06 11:44:38;;;;;;;13.40;4.15;;;;;;;3.73;55.88;99213.65;1736039;80;25333;-81
2021/04/06 11:47:06;;;;;;;12.93;4.33;;;;;;;3.73;56.55;99211.06;1736401;80;25841;-78
2021/04/06 11:49:33;;;;;;;7.33;3.77;;;;;;;3.73;56.46;99216.23;1705053;81;25783;-78
2021/04/06 11:51:59;;;;;;;8.45;3.80;;;;;;;3.73;55.57;99219.30;1735615;80;25746;-76
2021/04/06 11:54:26;;;;;;;14.55;4.15;;;;;;;3.63;54.32;99218.56;1736802;80;25863;-77
2021/04/06 11:56:52;;;;;;;10.83;3.67;;;;;;;3.58;54.60;99221.62;1730672;80;25953;-77